Time;durP1;ratioP1;P1;durP2;ratioP2;P2;SDS_P1;SDS_P2;PMS_P1;PMS_P2;Temp;Humidity;BMP_temperature;BMP_pressure;BME280_temperature;BME280_humidity;BME280_pressure;Samples;Min_cycle;Max_cycle;Signal;HPM_P1;HPM_P2
2024/02/25 00:01:03;;;;;;;5.72;5.18;;;4.40;99.90;;;;;;4992300;28;20087;-75
2024/02/25 00:03:30;;;;;;;3.80;3.42;;;4.40;99.90;;;;;;4992564;28;20512;-75
2024/02/25 00:05:57;;;;;;;6.85;6.13;;;4.60;99.90;;;;;;4992411;28;20073;-75
2024/02/25 00:08:24;;;;;;;5.60;3.88;;;4.50;99.90;;;;;;4976231;28;20046;-75
2024/02/25 00:10:52;;;;;;;4.57;3.70;;;4.50;99.90;;;;;;4992374;28;20495;-75
2024/02/25 00:13:19;;;;;;;4.00;3.42;;;4.60;99.90;;;;;;4993761;28;20042;-75
2024/02/25 00:15:46;;;;;;;6.03;3.55;;;4.60;99.90;;;;;;4976304;28;20050;-75
2024/02/25 00:18:13;;;;;;;5.30;4.80;;;4.60;99.90;;;;;;4993393;28;20561;-75
2024/02/25 00:20:41;;;;;;;3.83;3.25;;;4.60;99.90;;;;;;5008708;28;20488;-76
2024/02/25 00:23:08;;;;;;;6.43;5.55;;;4.60;99.90;;;;;;4993097;28;20399;-76
2024/02/25 00:25:37;;;;;;;7.03;6.18;;;4.50;99.90;;;;;;4991979;28;20435;-75
2024/02/25 00:28:04;;;;;;;5.85;5.25;;;4.50;99.90;;;;;;4993358;28;20050;-75
2024/02/25 00:30:31;;;;;;;4.68;3.90;;;4.50;99.90;;;;;;4976038;28;20080;-75
2024/02/25 00:32:58;;;;;;;2.15;1.98;;;4.50;99.90;;;;;;5008204;28;20038;-75
2024/02/25 00:35:26;;;;;;;6.03;4.80;;;4.50;99.90;;;;;;4993389;28;20056;-76
2024/02/25 00:37:53;;;;;;;4.53;4.13;;;4.50;99.90;;;;;;4975618;28;20484;-75
2024/02/25 00:40:20;;;;;;;2.47;2.28;;;4.60;99.90;;;;;;4992104;28;20105;-75
2024/02/25 00:42:47;;;;;;;6.70;6.30;;;4.40;99.90;;;;;;4993135;28;20435;-75
2024/02/25 00:45:14;;;;;;;3.35;3.05;;;4.40;99.90;;;;;;4991825;28;20042;-75
2024/02/25 00:47:41;;;;;;;5.43;4.97;;;4.40;99.90;;;;;;4992082;28;20391;-75
2024/02/25 00:50:09;;;;;;;5.95;5.43;;;4.30;99.90;;;;;;5008022;28;20389;-75
2024/02/25 00:52:36;;;;;;;3.53;3.30;;;4.30;99.90;;;;;;4992175;28;20038;-76
2024/02/25 00:55:04;;;;;;;4.32;3.63;;;4.30;99.90;;;;;;4992860;28;20038;-76
2024/02/25 00:57:31;;;;;;;3.90;2.92;;;4.20;99.90;;;;;;4976084;28;20061;-75
2024/02/25 00:59:58;;;;;;;4.40;3.80;;;4.20;99.90;;;;;;4975612;28;20125;-76
2024/02/25 01:02:25;;;;;;;4.45;4.05;;;4.20;99.90;;;;;;4991764;28;20096;-75
2024/02/25 01:04:52;;;;;;;4.43;4.00;;;4.20;99.90;;;;;;4991827;28;20054;-75
2024/02/25 01:07:19;;;;;;;5.03;2.45;;;4.20;99.90;;;;;;4975534;28;20101;-75
2024/02/25 01:09:46;;;;;;;6.55;4.22;;;4.20;99.90;;;;;;4975483;28;20137;-75
2024/02/25 01:12:14;;;;;;;5.07;3.95;;;4.20;99.90;;;;;;4991477;28;20100;-75
2024/02/25 01:14:41;;;;;;;3.97;3.67;;;4.40;99.90;;;;;;5007819;28;20491;-75
2024/02/25 01:17:08;;;;;;;6.80;3.88;;;4.30;99.90;;;;;;4991582;28;20051;-76
2024/02/25 01:19:35;;;;;;;4.88;4.32;;;4.40;99.90;;;;;;4991667;28;20049;-76
2024/02/25 01:22:02;;;;;;;5.57;4.85;;;4.40;99.90;;;;;;5007655;28;20051;-76
2024/02/25 01:24:29;;;;;;;4.32;3.88;;;4.50;99.90;;;;;;4975353;28;20109;-75
2024/02/25 01:26:56;;;;;;;5.78;5.28;;;4.60;99.90;;;;;;4992791;28;20395;-75
2024/02/25 01:29:23;;;;;;;4.57;3.78;;;4.60;99.90;;;;;;4991209;28;20484;-76
2024/02/25 01:31:52;;;;;;;6.00;3.33;;;4.70;99.90;;;;;;4991497;28;20059;-76
2024/02/25 01:34:21;;;;;;;4.93;3.53;;;4.70;99.90;;;;;;4992523;28;20072;-76
2024/02/25 01:36:48;;;;;;;5.60;4.53;;;4.70;99.90;;;;;;4979108;28;20042;-76
2024/02/25 01:39:15;;;;;;;5.65;3.25;;;4.70;99.90;;;;;;4994989;28;20043;-75
2024/02/25 01:41:42;;;;;;;4.72;4.10;;;4.80;99.90;;;;;;4994938;28;20074;-76
2024/02/25 01:44:11;;;;;;;2.60;2.40;;;4.70;99.90;;;;;;4996298;28;20125;-76
2024/02/25 01:46:39;;;;;;;5.05;4.05;;;4.90;99.90;;;;;;4995264;28;20056;-76
2024/02/25 01:49:06;;;;;;;7.53;6.82;;;4.80;99.90;;;;;;4996099;28;20407;-75
2024/02/25 01:51:34;;;;;;;4.97;3.92;;;4.80;99.90;;;;;;4979052;28;20074;-76
2024/02/25 01:54:01;;;;;;;4.35;3.88;;;4.80;99.90;;;;;;4995077;28;20039;-76
2024/02/25 01:56:28;;;;;;;3.63;2.70;;;4.80;99.90;;;;;;4978865;28;20563;-76
2024/02/25 01:58:56;;;;;;;2.30;2.05;;;4.90;99.90;;;;;;4995086;28;20038;-76
2024/02/25 02:01:25;;;;;;;4.10;2.40;;;4.90;99.90;;;;;;4994688;28;20058;-76
2024/02/25 02:03:52;;;;;;;4.07;3.78;;;4.90;99.90;;;;;;4996240;28;20050;-76
2024/02/25 02:06:19;;;;;;;3.97;2.95;;;4.90;99.90;;;;;;4994608;28;20519;-76
2024/02/25 02:08:46;;;;;;;3.72;2.88;;;4.90;99.90;;;;;;4996324;28;20042;-75
2024/02/25 02:11:22;;;;;;;3.17;2.95;;;4.90;99.90;;;;;;4995676;28;20050;-76
2024/02/25 02:13:49;;;;;;;4.50;3.50;;;4.90;99.90;;;;;;5011096;28;20047;-75
2024/02/25 02:16:16;;;;;;;4.50;2.47;;;4.90;99.90;;;;;;4995727;28;20484;-76
2024/02/25 02:18:46;;;;;;;3.10;2.08;;;5.10;99.90;;;;;;4994585;28;20089;-76
2024/02/25 02:21:20;;;;;;;1.60;1.50;;;4.90;99.90;;;;;;4995590;28;20043;-75
2024/02/25 02:23:47;;;;;;;4.57;4.20;;;5.00;99.90;;;;;;4994507;28;20463;-76
2024/02/25 02:26:14;;;;;;;3.00;2.35;;;5.00;99.90;;;;;;4995499;28;20045;-76
2024/02/25 02:28:41;;;;;;;4.80;4.40;;;5.00;99.90;;;;;;4994469;28;20443;-76
2024/02/25 02:31:08;;;;;;;3.55;1.98;;;5.00;99.90;;;;;;4977748;28;20073;-76
2024/02/25 02:33:38;;;;;;;2.78;2.20;;;5.00;99.90;;;;;;4978124;28;20050;-76
2024/02/25 02:36:06;;;;;;;2.30;2.00;;;5.00;99.90;;;;;;4995482;28;20042;-76
2024/02/25 02:38:33;;;;;;;2.25;2.05;;;5.00;99.90;;;;;;4994133;28;20455;-75
2024/02/25 02:41:01;;;;;;;2.40;2.20;;;5.00;99.90;;;;;;4994211;28;20056;-75
2024/02/25 02:43:28;;;;;;;2.33;1.80;;;5.10;99.90;;;;;;4993928;28;20046;-75
2024/02/25 02:45:55;;;;;;;2.58;2.22;;;5.00;99.90;;;;;;4977976;28;20100;-76
2024/02/25 02:48:22;;;;;;;2.00;1.80;;;4.90;99.90;;;;;;4992826;28;20046;-75
2024/02/25 02:50:50;;;;;;;2.03;1.80;;;4.90;99.90;;;;;;4994147;28;20141;-75
2024/02/25 02:53:17;;;;;;;2.83;2.05;;;4.90;99.90;;;;;;4994997;28;20038;-76
2024/02/25 02:55:45;;;;;;;2.72;2.13;;;4.90;99.90;;;;;;4995322;28;20042;-75
2024/02/25 02:58:12;;;;;;;3.75;3.55;;;4.90;99.90;;;;;;4994192;28;20486;-75
2024/02/25 03:00:39;;;;;;;3.90;2.78;;;4.90;99.90;;;;;;4993760;28;20047;-75
2024/02/25 03:03:06;;;;;;;4.78;1.88;;;4.90;99.90;;;;;;5010089;28;20517;-75
2024/02/25 03:05:33;;;;;;;3.45;1.67;;;4.80;99.90;;;;;;4993543;28;20518;-75
2024/02/25 03:08:00;;;;;;;2.28;1.75;;;4.80;99.90;;;;;;4993909;28;20101;-75
2024/02/25 03:10:29;;;;;;;1.52;1.05;;;4.90;99.90;;;;;;5009560;28;20046;-75
2024/02/25 03:12:56;;;;;;;2.05;1.80;;;4.90;99.90;;;;;;4993988;28;20100;-75
2024/02/25 03:15:23;;;;;;;1.48;1.38;;;4.80;99.90;;;;;;4977245;28;20085;-75
2024/02/25 03:17:50;;;;;;;1.92;1.75;;;4.80;99.90;;;;;;4993415;28;20557;-75
2024/02/25 03:20:19;;;;;;;3.60;1.90;;;4.80;99.90;;;;;;4994599;28;20050;-75
2024/02/25 03:22:46;;;;;;;2.10;1.88;;;4.80;99.90;;;;;;4994561;28;20042;-75
2024/02/25 03:25:14;;;;;;;1.83;1.73;;;4.80;99.90;;;;;;4994354;28;20038;-75
2024/02/25 03:27:41;;;;;;;2.13;1.92;;;4.80;99.90;;;;;;5009635;28;20077;-75
2024/02/25 03:30:09;;;;;;;2.22;1.77;;;4.80;99.90;;;;;;5009175;28;20047;-76
2024/02/25 03:32:38;;;;;;;3.63;2.65;;;4.80;99.90;;;;;;5009493;28;20046;-75
2024/02/25 03:35:06;;;;;;;3.85;2.75;;;4.80;99.90;;;;;;4994447;28;20500;-75
2024/02/25 03:37:32;;;;;;;2.95;2.75;;;4.80;99.90;;;;;;4994184;28;20391;-75
2024/02/25 03:39:59;;;;;;;1.35;1.25;;;4.80;99.90;;;;;;4976265;28;20062;-75
2024/02/25 03:42:27;;;;;;;1.92;1.83;;;4.80;99.90;;;;;;4992405;28;20054;-75
2024/02/25 03:44:54;;;;;;;1.65;1.55;;;4.80;99.90;;;;;;4993469;28;20046;-75
2024/02/25 03:47:22;;;;;;;3.47;1.75;;;4.80;99.90;;;;;;4993265;28;20089;-75
2024/02/25 03:49:50;;;;;;;3.38;2.10;;;4.70;99.90;;;;;;4992673;28;20476;-75
2024/02/25 03:52:16;;;;;;;1.65;1.55;;;4.80;99.90;;;;;;4992827;28;20050;-75
2024/02/25 03:54:47;;;;;;;3.45;2.13;;;4.70;99.90;;;;;;4993964;28;20066;-75
2024/02/25 03:57:14;;;;;;;4.07;3.78;;;4.90;99.90;;;;;;4993904;28;20395;-75
2024/02/25 03:59:41;;;;;;;2.42;2.22;;;4.70;99.90;;;;;;4992236;28;20053;-75
2024/02/25 04:02:08;;;;;;;2.28;2.08;;;4.80;99.90;;;;;;4990907;28;20169;-75
2024/02/25 04:04:35;;;;;;;1.38;1.10;;;4.80;99.90;;;;;;4993235;28;20046;-75
2024/02/25 04:07:03;;;;;;;2.08;1.88;;;4.80;99.90;;;;;;4993497;28;20053;-75
2024/02/25 04:09:30;;;;;;;3.90;3.60;;;4.80;99.90;;;;;;5008255;28;20441;-75
2024/02/25 04:11:57;;;;;;;1.50;1.30;;;4.90;99.90;;;;;;5025045;28;20066;-75
2024/02/25 04:14:24;;;;;;;2.50;2.30;;;4.90;99.90;;;;;;4993461;28;20038;-75
2024/02/25 04:16:51;;;;;;;2.47;2.00;;;5.00;99.90;;;;;;4992559;28;20050;-75
2024/02/25 04:19:18;;;;;;;3.03;1.90;;;5.10;99.90;;;;;;5024961;28;20122;-75
2024/02/25 04:21:45;;;;;;;2.10;1.90;;;5.00;99.90;;;;;;5008142;28;20054;-75
2024/02/25 04:24:12;;;;;;;2.13;1.42;;;5.00;99.90;;;;;;4992320;28;20047;-75
2024/02/25 04:26:43;;;;;;;1.83;1.73;;;5.10;99.90;;;;;;4991850;28;20498;-75
2024/02/25 04:29:10;;;;;;;2.03;1.92;;;5.00;99.90;;;;;;4992297;28;20062;-75
2024/02/25 04:31:43;;;;;;;2.08;1.65;;;5.00;99.90;;;;;;4993039;28;20093;-75
2024/02/25 04:34:10;;;;;;;3.25;2.75;;;5.10;99.90;;;;;;5007894;28;20046;-75
2024/02/25 04:36:37;;;;;;;3.40;1.40;;;5.10;99.90;;;;;;4991840;28;20081;-75
2024/02/25 04:39:05;;;;;;;2.10;1.90;;;5.20;99.90;;;;;;4993270;28;20045;-75
2024/02/25 04:41:32;;;;;;;2.13;1.38;;;5.20;99.90;;;;;;4991784;28;20054;-75
2024/02/25 04:43:59;;;;;;;2.60;2.40;;;5.10;99.90;;;;;;4992248;28;20377;-75
2024/02/25 04:46:26;;;;;;;1.83;1.50;;;5.10;99.90;;;;;;4991660;28;20078;-75
2024/02/25 04:48:53;;;;;;;2.53;1.65;;;5.10;99.90;;;;;;4993156;28;20077;-75
2024/02/25 04:51:20;;;;;;;3.67;2.25;;;5.10;99.90;;;;;;4993077;28;20105;-75
2024/02/25 04:53:52;;;;;;;4.45;2.45;;;5.10;99.90;;;;;;5008054;28;20050;-75
2024/02/25 04:56:19;;;;;;;4.60;2.63;;;5.10;99.90;;;;;;5007384;28;20042;-75
2024/02/25 04:58:46;;;;;;;3.20;2.95;;;5.10;99.90;;;;;;4991604;28;20080;-75
2024/02/25 05:01:13;;;;;;;2.38;2.10;;;5.10;99.90;;;;;;4993056;28;20041;-76
2024/02/25 05:03:40;;;;;;;3.22;2.25;;;5.10;99.90;;;;;;4993161;28;20050;-75
2024/02/25 05:06:07;;;;;;;2.70;2.50;;;5.20;99.90;;;;;;5024179;28;20034;-75
2024/02/25 05:08:35;;;;;;;2.55;2.10;;;5.10;99.90;;;;;;5007886;28;20133;-75
2024/02/25 05:11:02;;;;;;;3.28;2.88;;;5.10;99.90;;;;;;4995091;28;20113;-75
2024/02/25 05:13:29;;;;;;;2.72;2.53;;;5.10;99.90;;;;;;5028190;28;20046;-75
2024/02/25 05:15:56;;;;;;;3.83;3.53;;;5.10;99.90;;;;;;5011820;28;20046;-75
2024/02/25 05:18:27;;;;;;;3.17;2.85;;;5.10;99.90;;;;;;4996887;28;20093;-75
2024/02/25 05:20:54;;;;;;;3.78;2.97;;;5.20;99.90;;;;;;5028137;28;20043;-75
2024/02/25 05:23:21;;;;;;;4.72;2.17;;;5.30;99.90;;;;;;4996851;28;20078;-75
2024/02/25 05:25:48;;;;;;;4.43;2.67;;;5.10;99.90;;;;;;4995435;28;20496;-75
2024/02/25 05:28:14;;;;;;;2.10;1.90;;;5.20;99.90;;;;;;4996824;28;20054;-75
2024/02/25 05:30:41;;;;;;;4.18;3.78;;;5.20;99.90;;;;;;5027971;28;20447;-75
2024/02/25 05:33:08;;;;;;;2.58;2.03;;;5.20;99.90;;;;;;5028094;28;20043;-75
2024/02/25 05:35:36;;;;;;;5.28;3.25;;;5.20;99.90;;;;;;5011429;28;20105;-75
2024/02/25 05:38:03;;;;;;;4.80;2.58;;;5.20;99.90;;;;;;5011561;28;20034;-75
2024/02/25 05:40:30;;;;;;;2.85;2.60;;;5.20;99.90;;;;;;4995440;28;20046;-75
2024/02/25 05:42:57;;;;;;;4.88;3.35;;;5.20;99.90;;;;;;4995202;28;20052;-75
2024/02/25 05:45:24;;;;;;;5.68;3.97;;;5.20;99.90;;;;;;5027827;28;20081;-75
2024/02/25 05:47:51;;;;;;;4.50;2.95;;;5.20;99.90;;;;;;4994970;28;20050;-75
2024/02/25 05:50:18;;;;;;;4.57;3.28;;;5.10;99.90;;;;;;5011389;28;20046;-75
2024/02/25 05:52:45;;;;;;;3.60;2.40;;;5.10;99.90;;;;;;5027445;28;20050;-75
2024/02/25 05:55:12;;;;;;;2.58;2.13;;;5.20;99.90;;;;;;4996225;28;20042;-75
2024/02/25 05:57:40;;;;;;;2.35;2.03;;;5.20;99.90;;;;;;5027369;28;20042;-75
2024/02/25 06:00:10;;;;;;;3.17;2.78;;;5.20;99.90;;;;;;4994297;28;20054;-75
2024/02/25 06:02:44;;;;;;;3.42;3.03;;;5.20;99.90;;;;;;4995256;28;20050;-76
2024/02/25 06:05:15;;;;;;;2.22;2.03;;;5.20;99.90;;;;;;4993853;28;20526;-76
2024/02/25 06:07:43;;;;;;;;;;;5.20;99.90;;;;;;4994777;28;20054;-75
2024/02/25 06:10:10;;;;;;;5.60;3.15;;;5.30;99.90;;;;;;4995955;28;19921;-75
2024/02/25 06:12:38;;;;;;;2.72;2.53;;;5.30;99.90;;;;;;5010887;28;20042;-75
2024/02/25 06:15:10;;;;;;;1.95;1.73;;;5.20;99.90;;;;;;4994882;28;20042;-76
2024/02/25 06:17:38;;;;;;;4.80;3.05;;;5.20;99.90;;;;;;4995761;28;20043;-75
2024/02/25 06:20:09;;;;;;;2.20;2.00;;;5.20;99.90;;;;;;4994638;28;20096;-75
2024/02/25 06:22:38;;;;;;;4.40;2.88;;;5.20;99.90;;;;;;4994343;28;20145;-75
2024/02/25 06:25:07;;;;;;;3.40;3.10;;;5.20;99.90;;;;;;4994564;28;20053;-76
2024/02/25 06:27:37;;;;;;;4.13;3.25;;;5.20;99.90;;;;;;5010660;28;20046;-76
2024/02/25 06:30:05;;;;;;;4.07;2.53;;;5.20;99.90;;;;;;4994141;28;20046;-75
2024/02/25 06:32:32;;;;;;;2.05;1.63;;;5.30;99.90;;;;;;4995525;28;20125;-76
2024/02/25 06:34:59;;;;;;;3.67;2.50;;;5.30;99.90;;;;;;4978216;28;20069;-76
2024/02/25 06:37:27;;;;;;;3.63;3.28;;;5.30;99.90;;;;;;4995449;28;20480;-75
2024/02/25 06:39:55;;;;;;;3.75;2.90;;;5.30;99.90;;;;;;4994178;28;20101;-76
2024/02/25 06:42:22;;;;;;;3.30;2.65;;;5.30;99.90;;;;;;4994112;28;20057;-76
2024/02/25 06:44:49;;;;;;;2.58;2.03;;;5.30;99.90;;;;;;4993986;28;20050;-76
2024/02/25 06:47:16;;;;;;;4.13;3.17;;;5.30;99.90;;;;;;4994546;28;20045;-76
2024/02/25 06:49:43;;;;;;;2.17;2.00;;;5.40;99.90;;;;;;4995170;28;20088;-75
2024/02/25 06:52:10;;;;;;;3.08;2.63;;;5.40;99.90;;;;;;4995247;28;20125;-76
2024/02/25 06:54:37;;;;;;;5.05;3.28;;;5.40;99.90;;;;;;4994245;28;20051;-75
2024/02/25 06:57:04;;;;;;;3.45;2.70;;;5.40;99.90;;;;;;4993855;28;20078;-76
2024/02/25 06:59:32;;;;;;;2.38;2.17;;;5.40;99.90;;;;;;4977958;28;20084;-75
2024/02/25 07:01:59;;;;;;;4.00;2.60;;;5.50;99.90;;;;;;4993785;28;20054;-75
2024/02/25 07:04:26;;;;;;;2.20;1.35;;;5.50;99.90;;;;;;4993685;28;20499;-75
2024/02/25 07:06:53;;;;;;;2.17;1.98;;;5.50;99.90;;;;;;4994951;28;20046;-76
2024/02/25 07:09:20;;;;;;;3.53;2.55;;;5.50;99.90;;;;;;4993758;28;20044;-75
2024/02/25 07:11:49;;;;;;;3.05;1.88;;;5.60;99.90;;;;;;4993186;28;20042;-76
2024/02/25 07:14:16;;;;;;;4.68;3.15;;;5.60;99.90;;;;;;4994757;28;20451;-75
2024/02/25 07:16:43;;;;;;;2.22;2.00;;;5.60;99.90;;;;;;4977421;28;20054;-75
2024/02/25 07:19:10;;;;;;;2.42;2.20;;;5.60;99.90;;;;;;4993309;28;20082;-75
2024/02/25 07:21:38;;;;;;;3.03;2.67;;;5.80;99.90;;;;;;4977243;28;20081;-76
2024/02/25 07:24:05;;;;;;;3.58;2.67;;;5.60;99.90;;;;;;4994456;28;20066;-76
2024/02/25 07:26:32;;;;;;;2.83;2.38;;;5.60;99.90;;;;;;4993273;28;20054;-76
2024/02/25 07:28:59;;;;;;;2.50;2.30;;;5.60;99.90;;;;;;4992821;28;20145;-76
2024/02/25 07:31:26;;;;;;;2.88;2.67;;;5.60;99.90;;;;;;4992928;28;20050;-76
2024/02/25 07:33:55;;;;;;;2.80;2.40;;;5.80;99.90;;;;;;4976616;28;20047;-77
2024/02/25 07:36:22;;;;;;;2.97;2.58;;;5.60;99.90;;;;;;4977427;28;20133;-76
2024/02/25 07:38:49;;;;;;;2.83;2.55;;;5.60;99.90;;;;;;4993009;28;20042;-77
2024/02/25 07:41:17;;;;;;;1.80;1.65;;;5.80;99.90;;;;;;4976833;28;20141;-77
2024/02/25 07:43:44;;;;;;;2.85;2.65;;;5.60;99.90;;;;;;4993132;28;20038;-76
2024/02/25 07:46:13;;;;;;;2.38;2.00;;;5.60;99.90;;;;;;4976681;28;20061;-76
2024/02/25 07:48:42;;;;;;;2.10;1.65;;;5.60;99.90;;;;;;4993480;28;20162;-76
2024/02/25 07:51:12;;;;;;;4.72;4.32;;;5.60;99.90;;;;;;5008180;28;20402;-76
2024/02/25 07:53:39;;;;;;;3.83;3.53;;;5.60;99.90;;;;;;4976924;28;20042;-76
2024/02/25 07:56:06;;;;;;;3.78;3.35;;;5.60;99.90;;;;;;4992483;28;20575;-76
2024/02/25 07:58:33;;;;;;;2.03;1.83;;;5.60;99.90;;;;;;4992778;28;20053;-76
2024/02/25 08:01:00;;;;;;;3.42;3.13;;;5.70;99.90;;;;;;4992378;28;20488;-77
2024/02/25 08:03:28;;;;;;;4.75;4.13;;;5.70;99.90;;;;;;4992494;28;20415;-76
2024/02/25 08:05:55;;;;;;;3.13;2.60;;;5.70;99.90;;;;;;4992548;28;20097;-76
2024/02/25 08:08:22;;;;;;;4.63;4.32;;;6.00;99.90;;;;;;4992599;28;20406;-76
2024/02/25 08:10:50;;;;;;;3.55;3.25;;;5.90;99.90;;;;;;4976141;28;20042;-76
2024/02/25 08:13:17;;;;;;;3.42;2.70;;;5.80;99.90;;;;;;4992473;28;20053;-76
2024/02/25 08:15:44;;;;;;;2.85;2.65;;;5.80;99.90;;;;;;4992401;28;20046;-76
2024/02/25 08:18:11;;;;;;;4.15;3.63;;;5.80;99.90;;;;;;4992209;28;20045;-76
2024/02/25 08:20:38;;;;;;;3.83;3.45;;;5.80;99.90;;;;;;4992221;28;20043;-76
2024/02/25 08:23:05;;;;;;;1.95;1.80;;;5.80;99.90;;;;;;4992171;28;20046;-76
2024/02/25 08:25:32;;;;;;;3.90;3.33;;;5.80;99.90;;;;;;4992217;28;20042;-76
2024/02/25 08:27:59;;;;;;;2.85;2.65;;;5.80;99.90;;;;;;4975764;28;20050;-76
2024/02/25 08:30:26;;;;;;;2.67;2.47;;;5.80;99.90;;;;;;4993033;28;20046;-76
2024/02/25 08:32:54;;;;;;;3.55;3.25;;;5.90;99.90;;;;;;4976073;28;20502;-77
2024/02/25 08:35:21;;;;;;;1.92;1.70;;;5.90;99.90;;;;;;4992366;28;20046;-76
2024/02/25 08:37:49;;;;;;;1.83;1.70;;;5.90;99.90;;;;;;4992013;28;20050;-76
2024/02/25 08:40:16;;;;;;;2.70;2.15;;;6.00;99.90;;;;;;4975609;28;20050;-76
2024/02/25 08:42:43;;;;;;;2.28;2.17;;;6.00;99.90;;;;;;4992149;28;20050;-76
2024/02/25 08:45:10;;;;;;;2.72;2.33;;;6.00;99.90;;;;;;5007274;28;20093;-76
2024/02/25 08:47:37;;;;;;;3.13;2.83;;;6.00;99.90;;;;;;4975810;28;20077;-76
2024/02/25 08:50:05;;;;;;;2.13;1.92;;;6.10;99.90;;;;;;4991574;28;20122;-76
2024/02/25 08:52:32;;;;;;;2.65;2.45;;;6.10;99.90;;;;;;4992058;28;20049;-76
2024/02/25 08:54:59;;;;;;;4.82;2.83;;;6.20;99.90;;;;;;4975727;28;20089;-76
2024/02/25 08:57:30;;;;;;;2.45;2.25;;;6.30;99.90;;;;;;4975753;28;20047;-76
2024/02/25 08:59:57;;;;;;;4.53;3.35;;;6.50;99.90;;;;;;4992347;28;20038;-76
2024/02/25 09:02:24;;;;;;;4.95;2.65;;;6.60;99.90;;;;;;4975603;28;20064;-76
2024/02/25 09:04:51;;;;;;;3.42;3.13;;;6.80;99.90;;;;;;4991676;28;20042;-76
2024/02/25 09:07:19;;;;;;;2.10;1.85;;;6.90;99.90;;;;;;4975416;28;20096;-76
2024/02/25 09:09:47;;;;;;;4.30;3.88;;;7.00;99.90;;;;;;4975584;28;20081;-76
2024/02/25 09:12:14;;;;;;;3.10;2.78;;;7.10;99.90;;;;;;4975322;28;20054;-77
2024/02/25 09:14:42;;;;;;;2.97;2.58;;;7.20;99.90;;;;;;4991801;28;20185;-77
2024/02/25 09:17:11;;;;;;;2.45;2.25;;;7.30;99.90;;;;;;4991609;28;20086;-77
2024/02/25 09:19:39;;;;;;;3.95;3.03;;;7.30;99.90;;;;;;5007902;28;20115;-77
2024/02/25 09:22:06;;;;;;;3.63;3.42;;;7.40;99.90;;;;;;4991161;28;20554;-77
2024/02/25 09:24:33;;;;;;;3.80;3.40;;;7.30;99.90;;;;;;4975569;28;20124;-77
2024/02/25 09:27:00;;;;;;;2.92;2.72;;;7.50;99.90;;;;;;4991569;28;20052;-76
2024/02/25 09:29:27;;;;;;;3.47;2.75;;;7.50;99.90;;;;;;4991472;28;20078;-77
2024/02/25 09:31:56;;;;;;;3.47;2.67;;;7.70;99.90;;;;;;4975397;28;20042;-77
2024/02/25 09:34:23;;;;;;;3.00;2.70;;;7.90;99.90;;;;;;4975306;28;20098;-77
2024/02/25 09:36:50;;;;;;;3.63;3.33;;;8.00;99.90;;;;;;4991468;28;20046;-77
2024/02/25 09:39:18;;;;;;;3.25;2.97;;;8.00;99.90;;;;;;4975206;28;20157;-77
2024/02/25 09:41:46;;;;;;;3.45;3.05;;;8.00;99.90;;;;;;4991455;28;20499;-76
2024/02/25 09:44:24;;;;;;;3.95;3.65;;;7.80;99.90;;;;;;5007362;28;20480;-77
2024/02/25 09:46:53;;;;;;;3.92;3.70;;;7.60;99.90;;;;;;4991398;28;20407;-77
2024/02/25 09:49:24;;;;;;;3.60;3.30;;;7.50;99.90;;;;;;4991040;28;20140;-77
2024/02/25 09:51:51;;;;;;;3.90;3.25;;;7.40;99.90;;;;;;4975761;28;20118;-76
2024/02/25 09:54:19;;;;;;;3.97;3.67;;;7.30;99.90;;;;;;4991006;28;20480;-76
2024/02/25 09:56:50;;;;;;;2.83;2.28;;;7.30;99.90;;;;;;4992715;28;20198;-77
2024/02/25 09:59:21;;;;;;;5.13;3.00;;;7.30;99.90;;;;;;4963163;28;20039;-77
2024/02/25 10:01:48;;;;;;;2.95;2.75;;;7.40;99.90;;;;;;4977870;28;20057;-76
2024/02/25 10:04:16;;;;;;;2.47;2.25;;;7.40;99.90;;;;;;4994405;28;20046;-77
2024/02/25 10:06:43;;;;;;;4.40;4.00;;;7.40;99.90;;;;;;4994069;28;20049;-77
2024/02/25 10:09:12;;;;;;;4.57;4.25;;;7.40;99.90;;;;;;4994568;28;20042;-76
2024/02/25 10:11:42;;;;;;;2.72;2.50;;;7.30;99.90;;;;;;4978663;28;20069;-76
2024/02/25 10:14:10;;;;;;;2.85;2.65;;;7.30;99.90;;;;;;4994491;28;20158;-77
2024/02/25 10:16:37;;;;;;;2.90;2.70;;;7.30;99.90;;;;;;4994546;28;20046;-76
2024/02/25 10:19:04;;;;;;;2.42;1.98;;;7.30;99.90;;;;;;4994570;28;20043;-76
2024/02/25 10:21:32;;;;;;;3.45;3.15;;;7.50;99.90;;;;;;4994417;28;20050;-77
2024/02/25 10:23:59;;;;;;;4.10;3.63;;;7.50;99.90;;;;;;4994744;28;20136;-77
2024/02/25 10:26:26;;;;;;;3.88;3.22;;;7.50;99.90;;;;;;4978177;28;20058;-77
2024/02/25 10:29:05;;;;;;;2.17;1.85;;;7.50;99.90;;;;;;4978189;28;20105;-76
2024/02/25 10:31:36;;;;;;;2.63;2.20;;;7.60;99.90;;;;;;4994127;28;20050;-77
2024/02/25 10:34:03;;;;;;;;;;;7.40;99.90;;;;;;4978661;28;20042;-76
2024/02/25 10:36:32;;;;;;;2.50;2.30;;;7.60;99.90;;;;;;4993958;28;20425;-77
2024/02/25 10:39:00;;;;;;;4.28;3.90;;;7.60;99.90;;;;;;4994074;28;20050;-76
2024/02/25 10:41:29;;;;;;;4.55;4.07;;;7.60;99.90;;;;;;4993742;28;20054;-77
2024/02/25 10:44:03;;;;;;;4.32;3.55;;;7.70;99.90;;;;;;4995271;28;20046;-77
2024/02/25 10:46:36;;;;;;;4.45;3.40;;;7.70;99.90;;;;;;4994046;28;20056;-77
2024/02/25 10:49:07;;;;;;;4.90;4.13;;;7.70;99.90;;;;;;4993959;28;20046;-77
2024/02/25 10:51:35;;;;;;;3.63;3.00;;;7.80;99.90;;;;;;4993703;28;20046;-77
2024/02/25 10:54:04;;;;;;;3.97;3.50;;;7.90;99.90;;;;;;4977987;28;20169;-77
2024/02/25 10:56:32;;;;;;;4.10;3.30;;;8.00;99.90;;;;;;4977745;28;20425;-77
2024/02/25 10:59:00;;;;;;;3.60;3.30;;;8.00;99.90;;;;;;5010312;28;20038;-77
2024/02/25 11:01:28;;;;;;;3.88;3.58;;;8.10;99.90;;;;;;4977768;28;20554;-77
2024/02/25 11:03:55;;;;;;;7.18;4.88;;;8.10;99.90;;;;;;4994040;28;20050;-77
2024/02/25 11:06:33;;;;;;;7.60;3.58;;;8.10;99.90;;;;;;4977745;28;20042;-77
2024/02/25 11:09:06;;;;;;;5.20;4.03;;;8.40;99.90;;;;;;4992712;28;20050;-77
2024/02/25 11:11:33;;;;;;;4.22;3.83;;;8.20;99.90;;;;;;4993389;28;20130;-76
2024/02/25 11:14:00;;;;;;;5.28;3.58;;;8.30;99.90;;;;;;5009886;28;20126;-77
2024/02/25 11:16:35;;;;;;;3.35;3.15;;;8.20;99.90;;;;;;4977400;28;20451;-77
2024/02/25 11:19:02;;;;;;;3.85;2.90;;;8.30;99.90;;;;;;4993456;28;20050;-77
2024/02/25 11:21:31;;;;;;;5.03;4.47;;;8.20;99.90;;;;;;4993263;28;20061;-77
2024/02/25 11:23:58;;;;;;;4.85;4.45;;;8.00;99.90;;;;;;5009804;28;20149;-76
2024/02/25 11:26:34;;;;;;;3.65;3.25;;;7.90;99.90;;;;;;4993337;28;20145;-76
2024/02/25 11:29:20;;;;;;;3.70;2.85;;;7.80;99.90;;;;;;4993284;28;20061;-76
2024/02/25 11:31:47;;;;;;;4.10;3.17;;;7.70;99.90;;;;;;4977891;28;20054;-76
2024/02/25 11:34:16;;;;;;;4.93;4.63;;;7.70;99.90;;;;;;4993213;28;20451;-77
2024/02/25 11:36:47;;;;;;;4.00;3.28;;;7.80;99.90;;;;;;4993316;28;20039;-76
2024/02/25 11:39:15;;;;;;;8.27;3.70;;;7.80;99.90;;;;;;4993226;28;20484;-76
2024/02/25 11:41:43;;;;;;;4.60;3.78;;;8.10;99.90;;;;;;5007285;28;20050;-77
2024/02/25 11:44:10;;;;;;;3.83;3.30;;;8.50;99.90;;;;;;4992134;28;20054;-77
2024/02/25 11:46:37;;;;;;;5.75;5.35;;;8.70;99.90;;;;;;4991955;28;20419;-76
2024/02/25 11:49:05;;;;;;;2.55;2.35;;;8.60;99.90;;;;;;4992716;28;20542;-77
2024/02/25 11:51:32;;;;;;;3.80;3.40;;;8.70;99.90;;;;;;4992614;28;20043;-76
2024/02/25 11:53:59;;;;;;;3.92;3.53;;;8.70;99.90;;;;;;4992845;28;20042;-76
2024/02/25 11:56:26;;;;;;;3.20;2.90;;;8.70;99.90;;;;;;5008605;28;20043;-76
2024/02/25 11:58:53;;;;;;;3.25;2.95;;;8.60;99.90;;;;;;5009053;28;20121;-76
2024/02/25 12:01:21;;;;;;;3.75;3.42;;;8.60;99.90;;;;;;5008931;28;20484;-76
2024/02/25 12:03:48;;;;;;;3.83;3.42;;;8.70;99.90;;;;;;4992792;28;20443;-76
2024/02/25 12:06:15;;;;;;;3.60;2.60;;;8.80;99.90;;;;;;5025408;28;20488;-77
2024/02/25 12:08:46;;;;;;;4.00;3.67;;;9.10;99.90;;;;;;4992537;28;20125;-76
2024/02/25 12:11:14;;;;;;;3.53;2.35;;;9.00;99.90;;;;;;5024912;28;20085;-76
2024/02/25 12:13:44;;;;;;;2.40;2.20;;;9.10;99.90;;;;;;5008366;28;20554;-76
2024/02/25 12:16:15;;;;;;;2.95;2.72;;;9.50;99.90;;;;;;4992380;28;20050;-76
2024/02/25 12:18:42;;;;;;;2.50;2.30;;;10.10;99.90;;;;;;4992225;28;20034;-76
2024/02/25 12:21:09;;;;;;;4.57;4.18;;;10.90;99.90;;;;;;4993762;28;20457;-77
2024/02/25 12:23:42;;;;;;;4.75;3.90;;;11.70;99.90;;;;;;4992121;28;20133;-77
2024/02/25 12:26:09;;;;;;;5.32;4.35;;;12.00;99.90;;;;;;5025000;28;20392;-76
2024/02/25 12:28:37;;;;;;;4.80;4.32;;;11.80;99.90;;;;;;5008209;28;20099;-77
2024/02/25 12:31:10;;;;;;;4.05;2.63;;;11.40;99.90;;;;;;5024845;28;20065;-76
2024/02/25 12:33:38;;;;;;;3.88;3.40;;;10.80;99.90;;;;;;5024609;28;20054;-76
2024/02/25 12:36:05;;;;;;;3.67;3.03;;;10.30;99.90;;;;;;4992062;28;20101;-76
2024/02/25 12:38:32;;;;;;;3.45;3.15;;;9.90;99.90;;;;;;5024368;28;20043;-76
2024/02/25 12:41:03;;;;;;;2.40;2.20;;;9.60;99.90;;;;;;4993237;28;20041;-76
2024/02/25 12:43:30;;;;;;;2.95;2.25;;;9.30;99.90;;;;;;4991801;28;20054;-76
2024/02/25 12:45:57;;;;;;;3.40;2.72;;;9.20;99.90;;;;;;5024832;28;20055;-76
2024/02/25 12:48:24;;;;;;;3.70;3.40;;;9.10;99.90;;;;;;4992008;28;20057;-76
2024/02/25 12:50:51;;;;;;;3.95;3.65;;;9.00;99.90;;;;;;4975641;28;20467;-76
2024/02/25 12:53:18;;;;;;;3.53;2.22;;;9.10;99.90;;;;;;4993304;28;20121;-76
2024/02/25 12:55:45;;;;;;;4.10;3.25;;;9.10;99.90;;;;;;4975595;28;20569;-76
2024/02/25 12:58:12;;;;;;;5.57;4.70;;;9.10;99.90;;;;;;5008242;28;20381;-76
2024/02/25 13:00:39;;;;;;;3.60;3.25;;;9.00;99.90;;;;;;4991570;28;20038;-76